createdAt,value
2023-05-22T00:03:34.924Z,9.292023
2023-05-22T00:08:47.160Z,9.60939
2023-05-22T00:13:59.434Z,9.154953
2023-05-22T00:19:11.618Z,9.19072
2023-05-22T00:24:23.845Z,9.274887
2023-05-22T00:29:36.060Z,8.954315
2023-05-22T00:34:48.346Z,8.939072
2023-05-22T00:40:00.665Z,9.339752
2023-05-22T00:45:12.814Z,9.098618
2023-05-22T00:50:24.958Z,9.531631
2023-05-22T00:55:37.276Z,9.322586
2023-05-22T01:00:49.508Z,9.831802
2023-05-22T01:06:01.738Z,9.065475
2023-05-22T01:11:13.891Z,8.729248
2023-05-22T01:16:26.097Z,9.220444
2023-05-22T01:21:38.284Z,9.110992
2023-05-22T01:26:50.552Z,9.335892
2023-05-22T01:32:02.849Z,9.568039
2023-05-22T01:37:15.000Z,9.266953
2023-05-22T01:42:27.140Z,9.36058
2023-05-22T01:47:39.334Z,9.281906
2023-05-22T01:52:51.520Z,9.094513
2023-05-22T01:58:04.273Z,9.721222
2023-05-22T02:03:16.644Z,9.538071
2023-05-22T02:08:29.017Z,9.355087
2023-05-22T02:13:41.208Z,9.011002
2023-05-22T02:18:53.522Z,8.893295
2023-05-22T02:24:05.772Z,9.275223
2023-05-22T02:29:17.924Z,9.171631
2023-05-22T02:34:30.081Z,9.662201
2023-05-22T02:39:42.363Z,9.572342
2023-05-22T02:44:54.651Z,9.701294
2023-05-22T02:50:06.799Z,9.689728
2023-05-22T02:55:19.396Z,9.866745
2023-05-22T03:00:31.545Z,10.08569
2023-05-22T03:05:44.023Z,10.343
2023-05-22T03:10:56.183Z,10.68956
2023-05-22T03:16:08.409Z,10.57011
2023-05-22T03:21:20.674Z,10.67523
2023-05-22T03:26:32.824Z,10.65381
2023-05-22T03:31:44.979Z,10.49689
2023-05-22T03:36:57.135Z,10.44189
2023-05-22T03:42:09.290Z,10.63684
2023-05-22T03:47:21.439Z,10.34354
2023-05-22T03:52:33.587Z,10.1519
2023-05-22T03:57:45.675Z,9.958786
2023-05-22T04:02:59.743Z,10.19676
2023-05-22T04:08:11.976Z,9.810959
2023-05-22T04:13:24.193Z,9.924866
2023-05-22T04:18:36.408Z,10.2583
2023-05-22T04:23:49.193Z,10.03882
2023-05-22T04:29:01.336Z,10.04457
2023-05-22T04:34:14.007Z,10.6666
2023-05-22T04:39:26.683Z,11.22192
2023-05-22T04:44:38.914Z,11.6384
2023-05-22T04:49:51.089Z,12.35219
2023-05-22T04:55:05.884Z,12.32188
2023-05-22T05:00:18.336Z,12.58354
2023-05-22T05:05:30.751Z,12.79906
2023-05-22T05:10:42.842Z,12.67662
2023-05-22T05:15:55.009Z,12.72176
2023-05-22T05:21:07.147Z,12.79747
2023-05-22T05:26:19.288Z,13.28554
2023-05-22T05:31:31.505Z,13.14333
2023-05-22T05:36:43.745Z,13.82616
2023-05-22T05:41:55.985Z,14.15993
2023-05-22T05:47:08.087Z,13.47015
2023-05-22T05:52:20.249Z,13.52266
2023-05-22T05:57:33.203Z,13.6244
2023-05-22T06:02:45.762Z,13.84351
2023-05-22T06:08:03.124Z,13.56569
2023-05-22T06:13:15.269Z,13.84418
2023-05-22T06:18:27.432Z,14.4554
2023-05-22T06:23:40.129Z,15.37144
2023-05-22T06:28:52.289Z,14.54559
2023-05-22T06:34:04.570Z,14.36261
2023-05-22T06:39:16.954Z,14.67999
2023-05-22T06:44:29.330Z,14.40012
2023-05-22T06:49:42.135Z,14.30624
2023-05-22T06:54:54.308Z,13.59528
2023-05-22T07:00:06.476Z,14.02258
2023-05-22T07:05:18.660Z,14.20496
2023-05-22T07:10:30.826Z,14.21609
2023-05-22T07:15:44.004Z,14.34877
2023-05-22T07:20:58.037Z,14.54527
2023-05-22T07:26:10.188Z,14.29535
2023-05-22T07:31:22.307Z,14.13008
2023-05-22T07:36:34.494Z,14.20168
2023-05-22T07:41:47.161Z,14.39812
2023-05-22T07:46:59.313Z,14.30275
2023-05-22T07:52:11.465Z,14.39015
2023-05-22T07:57:23.685Z,14.22688
2023-05-22T08:02:35.921Z,14.535
2023-05-22T08:07:48.270Z,14.38615
2023-05-22T08:13:00.520Z,14.32779
2023-05-22T08:18:13.050Z,14.85989
2023-05-22T08:23:25.323Z,14.83562
2023-05-22T08:28:37.580Z,14.5928
2023-05-22T08:33:50.998Z,14.74649
2023-05-22T08:39:03.160Z,15.08086
2023-05-22T08:44:15.467Z,16.45811
2023-05-22T08:49:32.700Z,15.63615
2023-05-22T08:54:48.088Z,15.94135
2023-05-22T09:00:00.617Z,15.21774
2023-05-22T09:05:12.857Z,15.26985
2023-05-22T09:10:31.201Z,13.98544
2023-05-22T09:15:43.522Z,13.97107
2023-05-22T09:20:56.191Z,13.96646
2023-05-22T09:26:08.433Z,15.20055
2023-05-22T09:31:20.629Z,15.91685
2023-05-22T09:36:32.938Z,15.44525
2023-05-22T09:41:45.113Z,15.68614
2023-05-22T09:46:57.308Z,15.38654
2023-05-22T09:52:09.468Z,15.98291
2023-05-22T09:57:21.679Z,15.60336
2023-05-22T10:02:35.871Z,14.53217
2023-05-22T10:07:48.025Z,14.83397
2023-05-22T10:13:00.177Z,16.44966
2023-05-22T10:18:12.900Z,15.38277
2023-05-22T10:23:25.232Z,13.98445
2023-05-22T10:28:37.454Z,13.84819
2023-05-22T10:33:49.794Z,15.76459
2023-05-22T10:39:02.707Z,14.28882
2023-05-22T10:44:14.875Z,13.1467
2023-05-22T10:49:27.605Z,14.02194
2023-05-22T10:54:39.763Z,15.00922
2023-05-22T10:59:53.457Z,14.71893
2023-05-22T11:05:05.741Z,14.18109
2023-05-22T11:10:18.065Z,12.50948
2023-05-22T11:15:30.325Z,12.40239
2023-05-22T11:20:43.098Z,14.17622
2023-05-22T11:25:55.510Z,15.88121
2023-05-22T11:31:07.808Z,15.52805
2023-05-22T11:36:20.016Z,13.30544
2023-05-22T11:41:33.477Z,14.965
2023-05-22T11:46:46.915Z,14.36311
2023-05-22T11:52:04.233Z,12.98854
2023-05-22T11:57:16.377Z,13.24089
2023-05-22T12:02:28.671Z,14.37546
2023-05-22T12:07:40.875Z,14.27789
2023-05-22T12:12:53.038Z,14.16902
2023-05-22T12:18:05.292Z,14.38585
2023-05-22T12:23:17.447Z,13.69225
2023-05-22T12:28:29.612Z,13.3282
2023-05-22T12:33:41.985Z,13.16605
2023-05-22T12:38:54.209Z,14.4613
2023-05-22T12:44:06.421Z,13.5829
2023-05-22T12:49:18.571Z,12.64243
2023-05-22T12:54:30.732Z,12.23543
2023-05-22T12:59:42.949Z,11.91936
2023-05-22T13:04:55.208Z,12.62163
2023-05-22T13:10:07.605Z,12.84341
2023-05-22T13:15:19.774Z,11.74504
2023-05-22T13:20:31.942Z,11.52322
2023-05-22T13:25:44.107Z,11.90056
2023-05-22T13:30:56.263Z,12.88205
2023-05-22T13:36:08.427Z,13.55075
2023-05-22T13:41:20.585Z,13.21526
2023-05-22T13:46:33.279Z,13.66232
2023-05-22T13:51:45.474Z,14.51979
2023-05-22T13:56:57.636Z,14.64423
2023-05-22T14:02:09.845Z,13.20273
2023-05-22T14:07:22.204Z,12.74644
2023-05-22T14:12:34.437Z,13.01947
2023-05-22T14:17:46.676Z,12.3961
2023-05-22T14:22:58.851Z,13.22722
2023-05-22T14:28:11.001Z,14.35791
2023-05-22T14:33:23.211Z,14.539
2023-05-22T14:38:43.501Z,14.34012
2023-05-22T14:43:55.744Z,14.59908
2023-05-22T14:49:07.895Z,14.26701
2023-05-22T14:54:20.180Z,13.99483
2023-05-22T14:59:32.525Z,13.69128
2023-05-22T15:04:44.837Z,13.96458
2023-05-22T15:09:57.120Z,13.96794
2023-05-22T15:15:09.291Z,14.09624
2023-05-22T15:20:21.511Z,14.1041
2023-05-22T15:25:33.783Z,14.09151
2023-05-22T15:30:46.713Z,13.97533
2023-05-22T15:36:05.284Z,13.9222
2023-05-22T15:41:17.440Z,13.55779
2023-05-22T15:46:29.750Z,13.97202
2023-05-22T15:51:42.028Z,14.60693
2023-05-22T15:56:54.212Z,14.90205
2023-05-22T16:02:06.379Z,14.35002
2023-05-22T16:07:18.528Z,13.80659
2023-05-22T16:12:30.683Z,13.78029
2023-05-22T16:17:42.871Z,15.36066
2023-05-22T16:22:55.055Z,15.35724
2023-05-22T16:28:07.296Z,15.8289
2023-05-22T16:33:19.690Z,15.36629
2023-05-22T16:38:31.916Z,14.89363
2023-05-22T16:43:44.071Z,15.63251
2023-05-22T16:48:56.375Z,15.73351
2023-05-22T16:54:08.603Z,15.24834
2023-05-22T16:59:20.739Z,14.7429
2023-05-22T17:04:33.125Z,14.72876
2023-05-22T17:09:45.332Z,14.46748
2023-05-22T17:14:57.617Z,14.32951
2023-05-22T17:20:09.857Z,15.48277
2023-05-22T17:25:22.024Z,15.52881
2023-05-22T17:30:34.307Z,15.48099
2023-05-22T17:35:46.457Z,15.81946
2023-05-22T17:41:01.719Z,16.14227
2023-05-22T17:46:13.927Z,15.47549
2023-05-22T17:51:26.135Z,13.53845
2023-05-22T17:56:38.453Z,13.26224
2023-05-22T18:01:51.057Z,13.45766
2023-05-22T18:07:03.274Z,13.48708
2023-05-22T18:12:31.027Z,13.43529
2023-05-22T18:17:44.478Z,13.47646
2023-05-22T18:17:56.741Z,13.43744
2023-05-22T18:23:10.370Z,13.40111
2023-05-22T18:28:22.525Z,13.17235
2023-05-22T18:33:34.758Z,13.16153
2023-05-22T18:38:46.916Z,13.23125
2023-05-22T18:43:59.233Z,13.35231
2023-05-22T18:49:13.209Z,13.10728
2023-05-22T18:54:26.050Z,12.8253
2023-05-22T18:59:38.596Z,12.5589
2023-05-22T19:04:56.442Z,12.60379
2023-05-22T19:10:08.744Z,12.63004
2023-05-22T19:15:21.285Z,12.82297
2023-05-22T19:20:35.103Z,12.94722
2023-05-22T19:25:47.767Z,13.02888
2023-05-22T19:30:59.942Z,13.03917
2023-05-22T19:36:18.858Z,12.88297
2023-05-22T19:41:31.058Z,12.61589
2023-05-22T19:46:43.313Z,12.66209
2023-05-22T19:51:56.231Z,12.83443
2023-05-22T19:57:08.671Z,12.3356
2023-05-22T20:02:20.918Z,12.48706
2023-05-22T20:07:33.081Z,12.81108
2023-05-22T20:12:45.299Z,12.7894
2023-05-22T20:17:57.581Z,12.53831
2023-05-22T20:23:09.747Z,12.83365
2023-05-22T20:28:21.940Z,12.57227
2023-05-22T20:33:39.149Z,12.1506
2023-05-22T20:38:51.615Z,11.83264
2023-05-22T20:44:05.684Z,11.64032
2023-05-22T20:49:17.913Z,12.00101
2023-05-22T20:54:30.106Z,11.51608
2023-05-22T20:59:42.280Z,11.70245
2023-05-22T21:04:54.559Z,11.99985
2023-05-22T21:10:06.749Z,11.61542
2023-05-22T21:15:19.036Z,11.33614
2023-05-22T21:20:31.255Z,11.45515
2023-05-22T21:25:43.488Z,11.74017
2023-05-22T21:30:55.657Z,11.45053
2023-05-22T21:36:07.825Z,12.37694
2023-05-22T21:41:20.041Z,11.65375
2023-05-22T21:46:32.395Z,11.38683
2023-05-22T21:51:44.615Z,11.3593
2023-05-22T21:56:56.966Z,10.99409
2023-05-22T22:02:09.374Z,10.8474
2023-05-22T22:07:23.785Z,11.49945
2023-05-22T22:12:35.954Z,11.41602
2023-05-22T22:17:48.194Z,10.83563
2023-05-22T22:23:00.355Z,10.73087
2023-05-22T22:28:12.501Z,10.45406
2023-05-22T22:33:24.707Z,10.41783
2023-05-22T22:38:36.893Z,10.35495
2023-05-22T22:43:49.056Z,11.05371
2023-05-22T22:49:01.228Z,10.94183
2023-05-22T22:54:13.507Z,10.83116
2023-05-22T22:59:25.888Z,10.46414
2023-05-22T23:04:38.268Z,10.42987
2023-05-22T23:09:50.603Z,10.28722
2023-05-22T23:15:03.575Z,10.49113
2023-05-22T23:20:15.811Z,11.27299
2023-05-22T23:25:28.033Z,11.97502
2023-05-22T23:30:40.568Z,12.38193
2023-05-22T23:35:52.717Z,12.30356
2023-05-22T23:41:05.029Z,12.27127
2023-05-22T23:46:17.852Z,12.41727
2023-05-22T23:51:30.092Z,12.34108
2023-05-22T23:56:42.236Z,12.58743
